Notice: Undefined index: wuKey in /home/public/sites/www.plaatinfo.nl/weather28/wuforecast/wualmanac.php on line 27
Welkom op onze vernieuwde website. De website is uitgebreider en nog accurater gemaakt.


Bezoek ook deze websites:

Template documentation
and downloads

And another site


U vindt ons ook hier:

Weather Underground



METAR rapporten vliegvelden


Warning: A non-numeric value encountered in /home/public/sites/www.plaatinfo.nl/weather28/metar/metarDisplay.php on line 166

Warning: A non-numeric value encountered in /home/public/sites/www.plaatinfo.nl/weather28/metar/metarDisplay.php on line 166

Warning: A non-numeric value encountered in /home/public/sites/www.plaatinfo.nl/weather28/metar/metarDisplay.php on line 166

Warning: A non-numeric value encountered in /home/public/sites/www.plaatinfo.nl/weather28/metar/metarDisplay.php on line 166

Warning: A non-numeric value encountered in /home/public/sites/www.plaatinfo.nl/weather28/metar/metarDisplay.php on line 166
   
EHVK - Volkel Rnlafb, Netherlands
Afstand tot: ZW 18 km
Gewijzigd: 24-02-2021 19:25
Helder  
Helder  
   Wind: ZZO 5.6 km/h
Wind: ZZO 5.6 km/h
Temperatuur: 11°C
Dauwpunt: 7°C
Vochtigheid: 77%
Barometer: 1026 mb
Bewolking: Helder
Zicht: meer dan 10 km
Bewolking: Helder
EHVK 241825Z AUTO 16003KT 9999 NCD 11/07 Q1026 BLU
EDLV - Niederrhein, Germany
Afstand tot: ZO 25 km
Gewijzigd: 23-02-2021 16:50
Verouderd
Licht bewolkt  
Licht bewolkt  
   Wind: Zuiden 18.5 km/h
Wind: Zuiden 18.5 km/h
Temperatuur: 19°C
Dauwpunt: 9°C
Vochtigheid: 52%
Barometer: 1029 mb
Bewolking: Licht bewolkt
Zicht: meer dan 10 km
Bewolking: Licht bewolkt 1371.6 m
EDLV 231550Z 19010KT 9999 FEW045 19/09 Q1029
EHDL - Deelen Rnlafb, Netherlands
Afstand tot: N 35 km
Gewijzigd: 24-02-2021 19:25
Helder  
Helder  
   Wind: ZZO 9.3 km/h
Wind: ZZO 9.3 km/h
Temperatuur: 12°C
Dauwpunt: 7°C
Vochtigheid: 72%
Barometer: 1026 mb
Bewolking: Helder
Zicht: meer dan 10 km
Bewolking: Helder
EHDL 241825Z AUTO 16005KT 9999 NCD 12/07 Q1026 BLU
EHEH - Eindhoven Rnlafb, Netherlands
Afstand tot: ZW 48 km
Gewijzigd: 24-02-2021 18:55
Helder  
Helder  
   Wind: Zuiden 7.4 km/h
Wind: Zuiden 7.4 km/h
Temperatuur: 15°C
Dauwpunt: 7°C
Vochtigheid: 59%
Barometer: 1026 mb
Bewolking: Helder
Zicht: meer dan 10 km
Bewolking: Helder
EHEH 241755Z AUTO 17004KT 9999 NCD 15/07 Q1026 BLU
EHGR - Gilze-Rijen Rnla, Netherlands
Afstand tot: WZW 70 km
Gewijzigd: 24-02-2021 19:25
Helder  
Helder  
   Wind: ZZO 5.6 km/h
Wind: ZZO 5.6 km/h
Temperatuur: 13°C
Dauwpunt: 7°C
Vochtigheid: 67%
Barometer: 1026 mb
Bewolking: Helder
Zicht: meer dan 10 km
Bewolking: Helder
EHGR 241825Z AUTO 15003KT 9999 NCD 13/07 Q1026 BLU NOSIG
EBBL - Kleine-Brogel(Ba, Belgium
Afstand tot: ZZW 71 km
Gewijzigd: 24-02-2021 18:55
Helder  
Helder  
   Wind: varieert 3.7 km/h
Wind: varieert 3.7 km/h
Temperatuur: 15°C
Dauwpunt: 8°C
Vochtigheid: 63%
Barometer: 1026 mb
Bewolking: Helder
Zicht: meer dan 10 km
Bewolking: Helder
EBBL 241755Z AUTO VRB02KT 9999 NCD 15/08 Q1026 BLU

Script ontwikkeld door  Saratoga-weather.org Aangepast voor de template door  Weerstation Leuven

Apparatuur in gebruik:

Weerstation
Davis VP Vue

Weerprogramma
Meteobridge

Weercomputer
MeteoBridge Red +

Webleverancier
mijn provider

Davis VP Vue

Meteobridge

MeteoBridge Red +

mijn provider